Ask Your Question

M@t's profile - karma

M@t's karma change log

10 0 How can I list the dependencies of a package ( 2019-08-14 00:20:48 -0500 )

10 0 Creating a 3D map with Velodyne data ( 2019-08-08 16:30:58 -0500 )

10 0 How to split a recorded rosbag file ? ( 2019-08-04 11:57:16 -0500 )

10 0 Creating a 3D map with Velodyne data ( 2019-08-02 03:29:03 -0500 )

10 0 How to split a recorded rosbag file ? ( 2019-07-27 08:12:23 -0500 )

10 0 Navigation of mobile robot in 3d map ( 2019-07-16 05:47:42 -0500 )

10 0 Why does the accuracy of navsat_transform change with heading? ( 2019-07-11 01:23:50 -0500 )

10 0 How to split a recorded rosbag file ? ( 2019-07-08 05:24:26 -0500 )

10 0 pointgrey_camera_driver fails to compile ( 2019-07-05 06:44:52 -0500 )

0 -10 pointgrey_camera_driver fails to compile ( 2019-07-05 06:44:52 -0500 )

10 0 pointgrey_camera_driver fails to compile ( 2019-07-05 06:44:52 -0500 )

0 -10 pointgrey_camera_driver fails to compile ( 2019-07-05 06:44:47 -0500 )

10 0 pointgrey_camera_driver fails to compile ( 2019-07-05 06:44:46 -0500 )

10 0 Can robot_localization package be used on a full NED system? ( 2019-06-21 06:23:26 -0500 )

10 0 How does robot_localization package work and what should the output be? ( 2019-06-21 01:45:23 -0500 )

10 0 rqt_graph not showing all active nodes ( 2019-06-16 06:02:46 -0500 )

15 0 rqt_graph not showing all active nodes ( 2019-06-16 06:02:41 -0500 )

10 0 Creating a 3D map with Velodyne data ( 2019-06-14 07:16:51 -0500 )

10 0 How can I list the dependencies of a package ( 2019-06-11 04:30:49 -0500 )

10 0 How can I list the dependencies of a package ( 2019-06-10 23:37:07 -0500 )

10 0 rqt_graph not showing all active nodes ( 2019-06-10 23:36:08 -0500 )

15 0 Message set for GNSS/INS ROS Driver (node) - Standardized ( 2019-05-20 01:57:04 -0500 )

15 0 velodyne(HDL-32E) something shadow occured why it happened? ( 2019-05-20 01:17:21 -0500 )

10 0 How to split a recorded rosbag file ? ( 2019-04-18 02:24:25 -0500 )

15 0 Drones compatible with ROS ( 2019-04-08 01:05:02 -0500 )

10 0 Organizing point cloud from HDL-32E ( 2019-03-28 10:59:13 -0500 )

10 0 pointgrey_camera_driver fails to compile ( 2019-03-27 00:44:52 -0500 )

10 0 pointgrey_camera_driver fails to compile ( 2019-03-27 00:44:20 -0500 )

10 0 How to split a recorded rosbag file ? ( 2019-01-29 04:55:05 -0500 )

10 0 How do you implement a rospy KeyboardInterrupt without killing the node? ( 2019-01-21 04:55:39 -0500 )

10 0 Creating a 3D map with Velodyne data ( 2019-01-15 15:25:28 -0500 )

10 0 Creating a 3D map with Velodyne data ( 2018-12-21 07:34:20 -0500 )

10 0 Navigation of mobile robot in 3d map ( 2018-12-21 01:03:37 -0500 )

10 0 Creating a 3D map with Velodyne data ( 2018-11-19 11:24:22 -0500 )

10 0 Navigation of mobile robot in 3d map ( 2018-10-25 16:22:51 -0500 )

10 0 How does robot_localization package work and what should the output be? ( 2018-10-23 00:55:01 -0500 )

10 0 How do you use the navsat_transform set_datum service? ( 2018-10-20 04:40:12 -0500 )

0 -10 How do you use the navsat_transform set_datum service? ( 2018-10-20 04:40:11 -0500 )

10 0 How do you use the navsat_transform set_datum service? ( 2018-10-20 04:39:59 -0500 )

10 0 How to split a recorded rosbag file ? ( 2018-10-19 17:00:38 -0500 )

0 -10 How to split a recorded rosbag file ? ( 2018-10-19 17:00:36 -0500 )

10 0 How to split a recorded rosbag file ? ( 2018-10-19 17:00:33 -0500 )

15 0 navsat_transform broadcasting strange map->utm tf ( 2018-09-19 04:26:28 -0500 )

10 0 How to split a recorded rosbag file ? ( 2018-09-10 06:48:05 -0500 )

10 0 Navigation of mobile robot in 3d map ( 2018-08-15 10:35:19 -0500 )

10 0 Tuning Google Cartographer to work with a Velodyne HDL-32 ( 2018-08-05 20:55:39 -0500 )

10 0 How do you implement a rospy KeyboardInterrupt without killing the node? ( 2018-08-05 12:30:38 -0500 )

10 0 How to split a recorded rosbag file ? ( 2018-08-03 03:50:36 -0500 )

10 0 How does robot_localization package work and what should the output be? ( 2018-07-24 00:15:51 -0500 )

10 0 Why does the accuracy of navsat_transform change with heading? ( 2018-06-29 09:56:31 -0500 )

10 0 Creating a 3D map with Velodyne data ( 2018-06-19 14:30:47 -0500 )

10 0 How do you implement a rospy KeyboardInterrupt without killing the node? ( 2018-06-04 00:17:58 -0500 )

10 0 How can I reduce drift in my robot's trajectory? ( 2018-05-28 03:13:37 -0500 )

10 0 Tuning Google Cartographer to work with a Velodyne HDL-32 ( 2018-05-02 23:57:04 -0500 )

10 0 Renaming a package ( 2018-04-25 05:36:58 -0500 )

10 0 How does robot_localization package work and what should the output be? ( 2018-04-16 06:31:23 -0500 )

10 0 velodyne(HDL-32E) something shadow occured why it happened? ( 2018-04-10 17:13:16 -0500 )

10 0 How to split a recorded rosbag file ? ( 2018-04-05 10:14:32 -0500 )

10 0 Renaming a package ( 2018-04-03 02:34:13 -0500 )

10 0 velodyne(HDL-32E) something shadow occured why it happened? ( 2018-03-22 06:07:46 -0500 )

15 0 How does robot_localization package work and what should the output be? ( 2018-02-21 17:29:35 -0500 )

10 0 How can I reduce drift in my robot's trajectory? ( 2018-02-21 05:09:51 -0500 )

10 0 How can I reduce drift in my robot's trajectory? ( 2018-02-21 05:09:47 -0500 )

10 0 How to split a recorded rosbag file ? ( 2018-02-20 10:35:14 -0500 )

10 0 How can I reduce drift in my robot's trajectory? ( 2018-01-30 21:36:42 -0500 )

10 0 How can I reduce drift in my robot's trajectory? ( 2018-01-30 21:36:34 -0500 )

10 0 Navigation of mobile robot in 3d map ( 2018-01-20 11:02:34 -0500 )

10 0 Drones compatible with ROS ( 2018-01-15 03:10:24 -0500 )

10 0 Why does the accuracy of navsat_transform change with heading? ( 2018-01-12 05:37:07 -0500 )

10 0 How to split a recorded rosbag file ? ( 2017-12-10 13:19:12 -0500 )

10 0 Why is header.stamp truncated as a C++ class member? ( 2017-12-07 21:48:41 -0500 )

10 0 Why is header.stamp truncated as a C++ class member? ( 2017-12-06 01:15:20 -0500 )

10 0 Navigation of mobile robot in 3d map ( 2017-11-21 07:42:52 -0500 )

10 0 How can I reduce drift in my robot's trajectory? ( 2017-11-03 21:53:23 -0500 )

10 0 Tuning Google Cartographer to work with a Velodyne HDL-32 ( 2017-10-30 16:04:33 -0500 )

2 0 How to pass a parameter of type double as an input to a roscpp node? ( 2017-10-11 15:41:42 -0500 )

10 0 Message set for GNSS/INS ROS Driver (node) - Standardized ( 2017-10-08 13:05:12 -0500 )

10 0 Message set for GNSS/INS ROS Driver (node) - Standardized ( 2017-10-06 00:34:41 -0500 )

10 0 How does robot_localization package work and what should the output be? ( 2017-09-29 10:06:34 -0500 )

10 0 Why does sourcing my workspace cause the error "catkin_make: command not found"? ( 2017-09-26 22:15:16 -0500 )

2 0 Why does sourcing my workspace cause the error "catkin_make: command not found"? ( 2017-09-26 15:40:41 -0500 )

10 0 Why does sourcing my workspace cause the error "catkin_make: command not found"? ( 2017-09-25 21:26:15 -0500 )

10 0 How can I reduce drift in my robot's trajectory? ( 2017-09-18 15:40:21 -0500 )

10 0 How can I reduce drift in my robot's trajectory? ( 2017-09-18 15:37:13 -0500 )

10 0 How do you implement a rospy KeyboardInterrupt without killing the node? ( 2017-08-30 01:54:29 -0500 )

10 0 Tuning Google Cartographer to work with a Velodyne HDL-32 ( 2017-08-25 02:19:40 -0500 )

10 0 Tuning Google Cartographer to work with a Velodyne HDL-32 ( 2017-08-17 04:13:34 -0500 )

15 0 How does MSF estimate heading ? ( 2017-08-11 17:47:40 -0500 )

10 0 How to split a recorded rosbag file ? ( 2017-08-11 14:21:55 -0500 )

2 0 how to visualize pcd file.?? ( 2017-07-30 19:02:35 -0500 )

0 -2 how to visualize pcd file.?? ( 2017-07-30 18:53:46 -0500 )

10 0 How to split a recorded rosbag file ? ( 2017-07-29 18:50:03 -0500 )

15 0 How to split a recorded rosbag file ? ( 2017-07-11 12:22:23 -0500 )

10 0 How to split a recorded rosbag file ? ( 2017-07-11 12:22:00 -0500 )

10 0 How to split a recorded rosbag file ? ( 2017-07-05 02:01:48 -0500 )

10 0 Creating a 3D map with Velodyne data ( 2017-06-28 02:15:19 -0500 )

10 0 GPS waypoint navigation with Jackal ( 2017-05-23 15:02:02 -0500 )

10 0 How can I reduce drift in my robot's trajectory? ( 2017-04-23 09:35:17 -0500 )

15 0 GPS waypoint navigation with Jackal ( 2017-04-21 06:54:38 -0500 )

0 -15 GPS waypoint navigation with Jackal ( 2017-04-20 02:27:23 -0500 )